createdAt,value
2023-05-06T00:00:55.004Z,44.15
2023-05-06T00:03:23.432Z,42.97
2023-05-06T00:05:54.590Z,43.92
2023-05-06T00:08:22.883Z,44.38
2023-05-06T00:10:51.075Z,44.08
2023-05-06T00:13:20.942Z,43.05
2023-05-06T00:15:49.069Z,41.80
2023-05-06T00:18:17.397Z,42.85
2023-05-06T00:20:45.510Z,42.35
2023-05-06T00:23:13.629Z,41.95
2023-05-06T00:25:41.914Z,42.53
2023-05-06T00:28:10.105Z,43.40
2023-05-06T00:30:42.603Z,42.88
2023-05-06T00:33:10.856Z,41.63
2023-05-06T00:35:39.028Z,42.53
2023-05-06T00:38:11.355Z,42.60
2023-05-06T00:40:40.661Z,41.90
2023-05-06T00:43:09.118Z,42.80
2023-05-06T00:45:37.308Z,42.28
2023-05-06T00:48:08.608Z,42.90
2023-05-06T00:50:37.854Z,43.22
2023-05-06T00:53:09.405Z,42.95
2023-05-06T00:55:39.131Z,43.78
2023-05-06T00:58:07.765Z,43.05
2023-05-06T01:00:36.009Z,42.33
2023-05-06T01:03:04.429Z,44.30
2023-05-06T01:05:38.895Z,44.55
2023-05-06T01:08:14.291Z,48.95
2023-05-06T01:10:50.810Z,44.70
2023-05-06T01:13:26.266Z,47.40
2023-05-06T01:15:56.698Z,46.58
2023-05-06T01:18:28.369Z,47.30
2023-05-06T01:20:59.199Z,45.30
2023-05-06T01:23:28.685Z,48.33
2023-05-06T01:25:57.026Z,48.28
2023-05-06T01:28:25.338Z,46.65
2023-05-06T01:31:00.645Z,46.90
2023-05-06T01:33:38.103Z,47.83
2023-05-06T01:36:14.236Z,48.67
2023-05-06T01:38:53.936Z,47.90
2023-05-06T01:41:24.096Z,47.20
2023-05-06T01:43:54.667Z,46.58
2023-05-06T01:46:26.752Z,49.40
2023-05-06T01:48:56.734Z,50.35
2023-05-06T01:51:26.129Z,48.28
2023-05-06T01:53:56.562Z,45.65
2023-05-06T01:56:24.825Z,44.28
2023-05-06T01:58:52.936Z,45.38
2023-05-06T02:01:20.901Z,44.25
2023-05-06T02:03:49.058Z,48.85
2023-05-06T02:06:17.313Z,46.17
2023-05-06T02:08:45.404Z,45.17
2023-05-06T02:11:14.943Z,45.85
2023-05-06T02:13:43.437Z,46.92
2023-05-06T02:16:11.523Z,48.10
2023-05-06T02:18:39.765Z,46.85
2023-05-06T02:21:08.049Z,49.15
2023-05-06T02:23:36.281Z,45.08
2023-05-06T02:26:04.448Z,46.72
2023-05-06T02:28:33.988Z,45.03
2023-05-06T02:31:02.412Z,44.85
2023-05-06T02:33:30.388Z,44.92
2023-05-06T02:35:58.707Z,46.80
2023-05-06T02:38:27.333Z,44.63
2023-05-06T02:40:55.603Z,44.50
2023-05-06T02:43:23.829Z,46.58
2023-05-06T02:45:53.864Z,46.67
2023-05-06T02:48:21.849Z,44.90
2023-05-06T02:50:50.566Z,44.65
2023-05-06T02:53:18.662Z,44.33
2023-05-06T02:55:46.907Z,43.85
2023-05-06T02:58:14.913Z,45.97
2023-05-06T03:00:42.997Z,44.00
2023-05-06T03:03:12.524Z,45.20
2023-05-06T03:05:42.138Z,43.35
2023-05-06T03:08:10.267Z,43.88
2023-05-06T03:10:38.533Z,45.40
2023-05-06T03:13:07.008Z,45.67
2023-05-06T03:16:01.151Z,44.90
2023-05-06T03:18:30.847Z,44.10
2023-05-06T03:20:58.867Z,43.95
2023-05-06T03:23:26.984Z,43.72
2023-05-06T03:25:55.415Z,44.10
2023-05-06T03:28:23.537Z,42.97
2023-05-06T03:30:51.755Z,43.40
2023-05-06T03:33:19.885Z,43.80
2023-05-06T03:35:49.572Z,44.65
2023-05-06T03:38:17.668Z,42.95
2023-05-06T03:40:46.208Z,44.38
2023-05-06T03:43:14.312Z,43.72
2023-05-06T03:45:42.822Z,44.00
2023-05-06T03:48:11.080Z,42.95
2023-05-06T03:50:39.812Z,43.10
2023-05-06T03:53:09.519Z,42.42
2023-05-06T03:55:37.633Z,42.72
2023-05-06T03:58:06.040Z,42.20
2023-05-06T04:00:34.311Z,42.80
2023-05-06T04:03:02.597Z,42.83
2023-05-06T04:05:30.706Z,42.28
2023-05-06T04:07:58.821Z,42.13
2023-05-06T04:10:28.416Z,42.70
2023-05-06T04:12:56.742Z,41.92
2023-05-06T04:15:25.210Z,41.35
2023-05-06T04:17:53.463Z,41.30
2023-05-06T04:20:21.487Z,41.20
2023-05-06T04:22:49.541Z,42.42
2023-05-06T04:25:18.472Z,42.88
2023-05-06T04:27:48.146Z,42.28
2023-05-06T04:30:16.419Z,41.78
2023-05-06T04:32:44.759Z,42.25
2023-05-06T04:35:12.891Z,41.47
2023-05-06T04:37:41.464Z,41.25
2023-05-06T04:40:13.841Z,41.50
2023-05-06T04:42:42.055Z,42.60
2023-05-06T04:45:12.707Z,40.75
2023-05-06T04:47:41.249Z,41.92
2023-05-06T04:50:10.677Z,41.63
2023-05-06T04:52:39.055Z,42.22
2023-05-06T04:55:07.979Z,41.42
2023-05-06T04:57:36.087Z,41.33
2023-05-06T05:00:04.522Z,40.58
2023-05-06T05:02:34.182Z,42.28
2023-05-06T05:05:02.342Z,41.65
2023-05-06T05:07:30.654Z,40.97
2023-05-06T05:09:58.788Z,40.80
2023-05-06T05:12:26.932Z,40.47
2023-05-06T05:14:54.949Z,40.25
2023-05-06T05:17:22.833Z,40.88
2023-05-06T05:19:52.983Z,43.25
2023-05-06T05:22:21.128Z,43.97
2023-05-06T05:24:49.244Z,41.05
2023-05-06T05:27:17.372Z,40.75
2023-05-06T05:29:45.459Z,40.47
2023-05-06T05:32:13.706Z,41.28
2023-05-06T05:34:41.755Z,40.65
2023-05-06T05:37:11.454Z,41.65
2023-05-06T05:39:39.562Z,42.35
2023-05-06T05:42:07.786Z,42.60
2023-05-06T05:44:36.363Z,41.83
2023-05-06T05:47:04.470Z,42.70
2023-05-06T05:49:32.536Z,42.03
2023-05-06T05:52:00.566Z,41.45
2023-05-06T05:54:30.389Z,41.92
2023-05-06T05:56:59.279Z,41.63
2023-05-06T05:59:27.590Z,42.35
2023-05-06T06:01:57.701Z,43.33
2023-05-06T06:04:25.858Z,43.30
2023-05-06T06:06:54.255Z,43.67
2023-05-06T06:09:22.975Z,42.65
2023-05-06T06:12:00.497Z,42.97
2023-05-06T06:14:28.984Z,43.38
2023-05-06T06:16:57.116Z,43.92
2023-05-06T06:19:25.413Z,45.22
2023-05-06T06:21:53.707Z,43.33
2023-05-06T06:24:23.401Z,45.20
2023-05-06T06:26:51.609Z,45.20
2023-05-06T06:29:21.258Z,44.95
2023-05-06T06:31:49.352Z,45.00
2023-05-06T06:34:17.887Z,44.70
2023-05-06T06:36:46.302Z,45.30
2023-05-06T06:39:14.611Z,45.45
2023-05-06T06:41:42.926Z,45.92
2023-05-06T06:44:10.962Z,45.78
2023-05-06T06:46:40.661Z,44.60
2023-05-06T06:49:08.793Z,45.83
2023-05-06T06:51:36.961Z,46.53
2023-05-06T06:54:05.314Z,47.03
2023-05-06T06:56:33.434Z,47.88
2023-05-06T06:59:01.382Z,48.90
2023-05-06T07:01:30.155Z,48.08
2023-05-06T07:03:59.886Z,49.45
2023-05-06T07:06:28.388Z,49.15
2023-05-06T07:09:01.983Z,49.83
2023-05-06T07:11:30.612Z,49.22
2023-05-06T07:13:58.963Z,49.63
2023-05-06T07:16:27.149Z,50.53
2023-05-06T07:18:55.667Z,47.05
2023-05-06T07:21:25.440Z,47.85
2023-05-06T07:23:56.336Z,44.33
2023-05-06T07:26:24.749Z,44.03
2023-05-06T07:28:56.641Z,42.95
2023-05-06T07:31:26.730Z,38.30
2023-05-06T07:33:59.047Z,38.38
2023-05-06T07:36:29.424Z,37.67
2023-05-06T07:39:00.471Z,36.80
2023-05-06T07:41:29.119Z,37.08
2023-05-06T07:43:57.761Z,36.83
2023-05-06T07:46:26.859Z,37.50
2023-05-06T07:48:58.215Z,37.65
2023-05-06T07:51:27.249Z,39.70
2023-05-06T07:53:57.466Z,41.40
2023-05-06T07:56:28.898Z,41.10
2023-05-06T07:59:01.570Z,41.78
2023-05-06T08:01:34.494Z,41.28
2023-05-06T08:04:12.051Z,39.83
2023-05-06T08:06:42.090Z,36.88
2023-05-06T08:09:17.021Z,37.40
2023-05-06T08:14:50.470Z,43.55
2023-05-06T08:17:18.810Z,44.58
2023-05-06T08:19:49.570Z,46.88
2023-05-06T08:22:17.947Z,47.78
2023-05-06T08:24:47.813Z,49.30
2023-05-06T08:27:16.093Z,48.25
2023-05-06T08:29:44.500Z,49.58
2023-05-06T08:32:12.840Z,47.33
2023-05-06T08:34:43.763Z,47.53
2023-05-06T08:37:12.053Z,47.75
2023-05-06T08:39:41.545Z,48.20
2023-05-06T08:42:17.604Z,47.63
2023-05-06T08:44:46.041Z,47.25
2023-05-06T08:47:14.433Z,46.20
2023-05-06T08:49:44.824Z,47.05
2023-05-06T08:52:13.438Z,48.65
2023-05-06T08:54:42.756Z,47.92
2023-05-06T08:57:16.634Z,49.17
2023-05-06T08:59:45.232Z,50.28
2023-05-06T09:02:14.011Z,52.50
2023-05-06T09:04:43.103Z,48.88
2023-05-06T09:07:11.407Z,50.47
2023-05-06T09:09:39.822Z,51.92
2023-05-06T09:12:13.824Z,52.78
2023-05-06T09:14:43.142Z,55.75
2023-05-06T09:17:24.108Z,56.40
2023-05-06T09:19:53.584Z,58.28
2023-05-06T09:22:23.416Z,59.65
2023-05-06T09:24:57.072Z,60.20
2023-05-06T09:27:28.327Z,58.50
2023-05-06T09:30:06.926Z,59.55
2023-05-06T09:32:38.186Z,58.53
2023-05-06T09:35:09.975Z,52.05
2023-05-06T09:37:38.574Z,48.40
2023-05-06T09:40:09.280Z,45.83
2023-05-06T09:42:39.539Z,35.45
2023-05-06T09:45:12.241Z,8.13
2023-05-06T09:47:40.950Z,7.45
2023-05-06T09:50:19.179Z,6.18
2023-05-06T09:52:49.102Z,6.65
2023-05-06T09:55:21.801Z,6.85
2023-05-06T09:57:54.631Z,5.60
2023-05-06T10:00:29.270Z,5.50
2023-05-06T10:02:58.300Z,5.00
2023-05-06T10:05:27.107Z,4.88
2023-05-06T10:07:58.357Z,5.10
2023-05-06T10:10:29.674Z,6.18
2023-05-06T10:13:03.569Z,5.18
2023-05-06T10:15:33.123Z,5.65
2023-05-06T10:18:02.513Z,5.22
2023-05-06T10:20:32.821Z,5.75
2023-05-06T10:23:08.019Z,4.70
2023-05-06T10:25:39.125Z,5.25
2023-05-06T10:28:12.756Z,6.07
2023-05-06T10:30:47.041Z,6.20
2023-05-06T10:33:18.169Z,5.95
2023-05-06T10:35:53.701Z,5.45
2023-05-06T10:38:26.063Z,5.90
2023-05-06T10:40:57.827Z,6.15
2023-05-06T10:43:29.337Z,5.72
2023-05-06T10:46:02.566Z,7.13
2023-05-06T10:48:31.229Z,6.10
2023-05-06T10:51:27.454Z,5.45
2023-05-06T10:54:03.879Z,5.25
2023-05-06T10:56:34.301Z,4.53
2023-05-06T10:59:10.748Z,4.45
2023-05-06T11:01:39.947Z,3.75
2023-05-06T11:04:12.628Z,3.55
2023-05-06T11:06:44.787Z,5.00
2023-05-06T11:09:20.719Z,5.15
2023-05-06T11:12:02.078Z,5.20
2023-05-06T11:14:33.252Z,5.43
2023-05-06T11:17:02.754Z,5.22
2023-05-06T11:19:32.317Z,4.90
2023-05-06T11:22:02.269Z,4.95
2023-05-06T11:24:31.781Z,4.57
2023-05-06T11:27:01.515Z,4.30
2023-05-06T11:29:31.284Z,5.20
2023-05-06T11:32:00.358Z,4.07
2023-05-06T11:34:29.908Z,3.28
2023-05-06T11:37:02.351Z,3.33
2023-05-06T11:39:36.635Z,4.20
2023-05-06T11:42:09.177Z,4.28
2023-05-06T11:44:40.626Z,6.70
2023-05-06T11:47:10.054Z,5.15
2023-05-06T11:49:42.189Z,5.43
2023-05-06T11:52:10.910Z,4.95
2023-05-06T11:54:41.682Z,5.50
2023-05-06T11:57:10.582Z,5.65
2023-05-06T11:59:43.376Z,5.93
2023-05-06T12:02:14.320Z,5.30
2023-05-06T12:04:45.935Z,4.50
2023-05-06T12:07:15.323Z,6.55
2023-05-06T12:09:47.154Z,6.43
2023-05-06T12:12:22.521Z,7.30
2023-05-06T12:14:54.383Z,5.40
2023-05-06T12:17:23.238Z,6.13
2023-05-06T12:19:51.943Z,5.60
2023-05-06T12:22:21.725Z,5.90
2023-05-06T12:24:52.923Z,6.13
2023-05-06T12:27:34.432Z,6.55
2023-05-06T12:30:11.792Z,4.93
2023-05-06T12:33:01.571Z,5.00
2023-05-06T12:35:33.353Z,4.18
2023-05-06T12:38:11.121Z,3.53
2023-05-06T12:40:44.270Z,3.45
2023-05-06T12:43:13.860Z,3.75
2023-05-06T12:45:46.383Z,4.30
2023-05-06T12:48:19.678Z,4.60
2023-05-06T12:50:48.341Z,5.20
2023-05-06T12:53:32.733Z,5.35
2023-05-06T12:56:00.883Z,6.07
2023-05-06T12:58:29.386Z,5.95
2023-05-06T13:00:58.949Z,5.80
2023-05-06T13:03:27.464Z,6.80
2023-05-06T13:05:55.756Z,7.25
2023-05-06T13:08:23.937Z,7.15
2023-05-06T13:10:52.018Z,6.47
2023-05-06T13:13:20.609Z,7.03
2023-05-06T13:15:49.324Z,7.18
2023-05-06T13:18:19.245Z,6.85
2023-05-06T13:20:48.984Z,7.35
2023-05-06T13:23:17.959Z,6.65
2023-05-06T13:26:02.712Z,5.85
2023-05-06T13:28:32.913Z,5.53
2023-05-06T13:31:01.148Z,5.80
2023-05-06T13:33:31.154Z,4.90
2023-05-06T13:35:59.314Z,6.00
2023-05-06T13:38:27.658Z,6.57
2023-05-06T13:40:55.824Z,6.32
2023-05-06T13:43:25.372Z,6.22
2023-05-06T13:45:54.321Z,5.72
2023-05-06T13:48:22.663Z,6.53
2023-05-06T13:50:52.480Z,6.35
2023-05-06T13:53:21.569Z,5.88
2023-05-06T13:55:49.660Z,6.15
2023-05-06T13:58:18.302Z,5.93
2023-05-06T14:00:46.604Z,6.72
2023-05-06T14:03:15.248Z,6.95
2023-05-06T14:05:46.345Z,6.50
2023-05-06T14:08:16.083Z,6.35
2023-05-06T14:10:46.779Z,7.25
2023-05-06T14:13:14.961Z,7.80
2023-05-06T14:15:45.976Z,6.97
2023-05-06T14:18:14.412Z,6.15
2023-05-06T14:20:42.930Z,6.93
2023-05-06T14:23:11.122Z,6.68
2023-05-06T14:25:40.591Z,8.30
2023-05-06T14:28:10.478Z,5.75
2023-05-06T14:30:38.891Z,4.80
2023-05-06T14:33:08.819Z,6.35
2023-05-06T14:35:37.826Z,5.40
2023-05-06T14:38:06.098Z,7.32
2023-05-06T14:40:38.967Z,5.55
2023-05-06T14:43:09.173Z,5.53
2023-05-06T14:45:37.373Z,5.30
2023-05-06T14:48:06.687Z,4.40
2023-05-06T14:50:35.499Z,5.03
2023-05-06T14:53:04.044Z,3.95
2023-05-06T14:55:32.531Z,8.75
2023-05-06T14:58:00.672Z,9.43
2023-05-06T15:00:30.302Z,9.55
2023-05-06T15:02:59.461Z,9.90
2023-05-06T15:05:27.934Z,9.85
2023-05-06T15:07:57.189Z,10.43
2023-05-06T15:10:25.657Z,9.68
2023-05-06T15:12:55.685Z,10.02
2023-05-06T15:15:23.758Z,9.82
2023-05-06T15:17:53.374Z,9.75
2023-05-06T15:20:21.594Z,10.10
2023-05-06T15:22:53.081Z,8.90
2023-05-06T15:25:34.080Z,9.18
2023-05-06T15:28:03.530Z,8.30
2023-05-06T15:30:31.882Z,7.40
2023-05-06T15:33:02.780Z,7.10
2023-05-06T15:35:32.093Z,4.57
2023-05-06T15:38:00.185Z,3.60
2023-05-06T15:40:28.621Z,2.80
2023-05-06T15:42:57.235Z,2.90
2023-05-06T15:45:27.716Z,3.13
2023-05-06T15:47:56.674Z,3.95
2023-05-06T15:52:59.840Z,2.83
2023-05-06T15:55:34.539Z,3.53
2023-05-06T15:58:09.676Z,2.70
2023-05-06T16:00:37.926Z,2.70
2023-05-06T16:03:07.965Z,3.30
2023-05-06T16:05:39.645Z,2.78
2023-05-06T16:08:08.090Z,3.08
2023-05-06T16:10:36.566Z,3.17
2023-05-06T16:13:04.884Z,3.58
2023-05-06T16:15:33.023Z,3.72
2023-05-06T16:18:01.655Z,3.70
2023-05-06T16:20:32.037Z,3.13
2023-05-06T16:23:02.812Z,3.10
2023-05-06T16:25:33.578Z,3.90
2023-05-06T16:28:01.684Z,4.53
2023-05-06T16:30:30.006Z,4.65
2023-05-06T16:33:01.477Z,4.78
2023-05-06T16:35:31.211Z,5.47
2023-05-06T16:37:59.511Z,6.88
2023-05-06T16:40:31.025Z,11.35
2023-05-06T16:42:59.137Z,22.80
2023-05-06T16:45:27.469Z,33.45
2023-05-06T16:48:00.564Z,38.15
2023-05-06T16:50:28.774Z,48.72
2023-05-06T16:52:59.476Z,54.78
2023-05-06T16:55:29.131Z,57.05
2023-05-06T16:57:57.282Z,56.50
2023-05-06T17:00:26.528Z,56.42
2023-05-06T17:02:54.829Z,56.42
2023-05-06T17:05:24.397Z,57.05
2023-05-06T17:07:52.610Z,55.67
2023-05-06T17:10:22.180Z,52.15
2023-05-06T17:12:52.100Z,51.85
2023-05-06T17:15:20.750Z,51.95
2023-05-06T17:17:49.433Z,50.17
2023-05-06T17:20:19.858Z,50.70
2023-05-06T17:22:48.269Z,48.75
2023-05-06T17:25:16.894Z,48.95
2023-05-06T17:27:47.835Z,47.95
2023-05-06T17:30:22.863Z,46.10
2023-05-06T17:32:54.261Z,46.40
2023-05-06T17:35:26.294Z,47.05
2023-05-06T17:38:00.408Z,46.95
2023-05-06T17:40:31.537Z,46.08
2023-05-06T17:42:59.891Z,46.28
2023-05-06T17:45:29.600Z,45.83
2023-05-06T17:48:00.843Z,45.47
2023-05-06T17:50:29.040Z,45.75
2023-05-06T17:52:57.422Z,44.75
2023-05-06T17:55:26.060Z,45.60
2023-05-06T17:57:56.515Z,44.63
2023-05-06T18:00:29.010Z,46.20
2023-05-06T18:02:58.227Z,46.40
2023-05-06T18:05:31.674Z,46.65
2023-05-06T18:08:02.676Z,46.15
2023-05-06T18:10:31.248Z,47.25
2023-05-06T18:12:59.935Z,47.72
2023-05-06T18:15:33.665Z,47.13
2023-05-06T18:18:04.537Z,46.53
2023-05-06T18:20:33.762Z,46.28
2023-05-06T18:23:05.300Z,46.33
2023-05-06T18:25:33.780Z,45.72
2023-05-06T18:28:05.705Z,45.35
2023-05-06T18:30:36.013Z,45.28
2023-05-06T18:33:28.980Z,44.92
2023-05-06T18:36:00.117Z,45.22
2023-05-06T18:38:30.890Z,45.08
2023-05-06T18:40:59.454Z,43.10
2023-05-06T18:43:28.669Z,42.28
2023-05-06T18:46:02.630Z,42.13
2023-05-06T18:48:35.351Z,42.50
2023-05-06T18:51:15.208Z,43.03
2023-05-06T18:53:47.135Z,43.75
2023-05-06T18:56:16.130Z,43.72
2023-05-06T18:58:44.609Z,43.35
2023-05-06T19:01:16.868Z,43.22
2023-05-06T19:03:45.320Z,41.58
2023-05-06T19:06:14.117Z,42.92
2023-05-06T19:08:42.685Z,42.85
2023-05-06T19:11:19.725Z,41.80
2023-05-06T19:13:48.247Z,47.08
2023-05-06T19:16:18.042Z,46.78
2023-05-06T19:18:48.087Z,44.80
2023-05-06T19:21:16.559Z,44.30
2023-05-06T19:23:44.832Z,42.70
2023-05-06T19:26:13.209Z,42.38
2023-05-06T19:28:43.180Z,41.85
2023-05-06T19:31:14.452Z,42.50
2023-05-06T19:33:47.621Z,42.53
2023-05-06T19:36:16.518Z,42.30
2023-05-06T19:38:45.164Z,41.45
2023-05-06T19:41:13.386Z,40.97
2023-05-06T19:43:43.176Z,39.55
2023-05-06T19:46:12.847Z,40.35
2023-05-06T19:48:40.958Z,40.97
2023-05-06T19:51:10.527Z,40.55
2023-05-06T19:53:38.800Z,40.97
2023-05-06T19:56:10.614Z,40.15
2023-05-06T19:58:38.960Z,41.75
2023-05-06T20:01:07.495Z,45.67
2023-05-06T20:03:36.783Z,44.90
2023-05-06T20:06:05.615Z,46.95
2023-05-06T20:08:38.300Z,47.80
2023-05-06T20:11:08.443Z,49.42
2023-05-06T20:13:36.814Z,50.85
2023-05-06T20:16:05.553Z,51.00
2023-05-06T20:18:35.194Z,52.05
2023-05-06T20:21:03.814Z,53.00
2023-05-06T20:23:32.234Z,50.92
2023-05-06T20:26:02.149Z,52.10
2023-05-06T20:28:31.543Z,51.45
2023-05-06T20:31:17.500Z,51.20
2023-05-06T20:33:46.126Z,54.00
2023-05-06T20:36:14.390Z,53.47
2023-05-06T20:38:44.761Z,52.92
2023-05-06T20:41:16.727Z,53.28
2023-05-06T20:43:45.149Z,51.83
2023-05-06T20:46:13.457Z,49.67
2023-05-06T20:48:44.668Z,50.28
2023-05-06T20:51:13.145Z,49.90
2023-05-06T20:53:42.932Z,49.25
2023-05-06T20:56:24.327Z,49.53
2023-05-06T20:58:52.945Z,49.08
2023-05-06T21:01:23.243Z,48.35
2023-05-06T21:03:53.966Z,48.40
2023-05-06T21:06:22.380Z,49.58
2023-05-06T21:08:51.900Z,48.78
2023-05-06T21:11:23.687Z,45.95
2023-05-06T21:13:51.866Z,45.58
2023-05-06T21:16:20.275Z,46.30
2023-05-06T21:18:50.412Z,45.80
2023-05-06T21:21:22.027Z,45.90
2023-05-06T21:23:51.805Z,44.25
2023-05-06T21:26:21.949Z,45.05
2023-05-06T21:28:52.282Z,45.95
2023-05-06T21:31:21.371Z,45.10
2023-05-06T21:33:49.996Z,45.28
2023-05-06T21:36:19.003Z,45.15
2023-05-06T21:38:49.644Z,45.55
2023-05-06T21:41:18.061Z,45.25
2023-05-06T21:43:47.699Z,45.25
2023-05-06T21:46:16.001Z,45.45
2023-05-06T21:48:44.236Z,46.38
2023-05-06T21:51:12.369Z,46.80
2023-05-06T21:53:40.986Z,45.60
2023-05-06T21:56:11.994Z,46.30
2023-05-06T21:58:40.376Z,44.53
2023-05-06T22:01:14.546Z,45.58
2023-05-06T22:03:54.124Z,45.33
2023-05-06T22:06:22.636Z,45.30
2023-05-06T22:08:51.701Z,46.75
2023-05-06T22:11:20.120Z,47.45
2023-05-06T22:13:51.345Z,47.05
2023-05-06T22:16:21.178Z,45.83
2023-05-06T22:18:51.976Z,46.55
2023-05-06T22:21:20.271Z,46.80
2023-05-06T22:23:50.781Z,47.85
2023-05-06T22:26:19.259Z,46.38
2023-05-06T22:28:48.963Z,45.53
2023-05-06T22:31:17.361Z,47.05
2023-05-06T22:33:54.395Z,45.42
2023-05-06T22:36:22.995Z,45.67
2023-05-06T22:38:53.828Z,46.42
2023-05-06T22:41:22.213Z,46.08
2023-05-06T22:43:50.504Z,45.10
2023-05-06T22:46:19.092Z,45.88
2023-05-06T22:48:50.177Z,44.60
2023-05-06T22:51:18.655Z,46.53
2023-05-06T22:53:46.804Z,46.90
2023-05-06T22:56:14.947Z,46.28
2023-05-06T22:58:43.480Z,47.53
2023-05-06T23:01:12.171Z,45.25
2023-05-06T23:03:43.558Z,45.65
2023-05-06T23:06:16.155Z,45.72
2023-05-06T23:08:44.451Z,47.65
2023-05-06T23:11:12.804Z,46.03
2023-05-06T23:13:41.098Z,47.38
2023-05-06T23:16:11.513Z,46.97
2023-05-06T23:18:39.823Z,46.53
2023-05-06T23:21:08.052Z,46.40
2023-05-06T23:23:37.725Z,46.45
2023-05-06T23:26:05.927Z,46.30
2023-05-06T23:28:34.380Z,46.38
2023-05-06T23:31:03.118Z,47.35
2023-05-06T23:33:31.449Z,48.72
2023-05-06T23:36:00.992Z,47.85
2023-05-06T23:38:29.105Z,48.35
2023-05-06T23:40:58.936Z,47.65
2023-05-06T23:43:26.994Z,48.15
2023-05-06T23:45:55.635Z,47.28
2023-05-06T23:48:24.043Z,47.75
2023-05-06T23:50:54.495Z,48.53
2023-05-06T23:53:23.414Z,50.60
2023-05-06T23:55:51.882Z,48.05
2023-05-06T23:58:21.500Z,48.97
